読者です 読者をやめる 読者になる 読者になる

今朝の成田(2017/05/13)

VNL100/JA04VA(A320)

JJP40/JA01JJ(A320) アングリバード c/s

JJP12/JA07JJ(A320)

ANA832/JA617A(B763)

ANA179/JA823A(B788)

CPA524/B-HNQ(B773)

*JJP501/JA04JJ(A320)

THA640/HS-TUF(A388)

GTI7133/N407KZ(B744)

JAL724/JA863J(B789)

JAL740/JA844J(B788)

*JJP101/JA17JJ(A320)

ANA814/JA622A(B763) with winglet

CPA006/B-HKX(B744)

NCA228/JA08KZ(B744)

NCA089/JA11KZ(B748)

*JJP401/JA10JJ(A320)

FDX31/N868FD(B77L)

AMX058/XA-AMX(B788)

ANA818/JA878A(B788)

JAL752/JA840J(B788)

*JJP301/JA05JJ(A320)

JAL726/JA867J(B789)

ALK454/4R-ALQ(A333)

HVN310/VN-A865(B789)

NCA167/JA14KZ(B748)

RJAA 122100Z 14010KT 4000 -RA BR FEW007 BKN012 BKN035 19/18 Q1013 TEMPO FEW005 BKN007

RJAA 122200Z 13010KT 3000 SHRA BR FEW003 BKN006 BKN010 19/18 Q1013 NOSIG

今朝の成田は雨に煙っているようです。